createdAt,value
2018-12-12T00:00:41.026Z,2.50
2018-12-12T00:03:09.696Z,2.87
2018-12-12T00:05:38.516Z,2.73
2018-12-12T00:08:07.583Z,2.50
2018-12-12T00:10:36.859Z,2.87
2018-12-12T00:13:05.712Z,2.50
2018-12-12T00:15:34.484Z,2.67
2018-12-12T00:18:03.704Z,3.05
2018-12-12T00:20:33.142Z,2.90
2018-12-12T00:23:01.830Z,2.92
2018-12-12T00:25:30.619Z,2.72
2018-12-12T00:27:59.405Z,2.55
2018-12-12T00:30:28.692Z,2.60
2018-12-12T00:32:57.372Z,2.70
2018-12-12T00:35:26.207Z,2.80
2018-12-12T00:37:54.870Z,3.10
2018-12-12T00:40:25.780Z,2.90
2018-12-12T00:42:54.645Z,3.10
2018-12-12T00:45:24.537Z,3.20
2018-12-12T00:47:53.418Z,2.90
2018-12-12T00:50:22.263Z,2.90
2018-12-12T00:52:52.402Z,3.40
2018-12-12T00:55:21.052Z,3.42
2018-12-12T00:57:50.219Z,3.07
2018-12-12T01:00:19.600Z,3.00
2018-12-12T01:02:48.321Z,3.30
2018-12-12T01:05:17.120Z,2.73
2018-12-12T01:07:46.308Z,2.97
2018-12-12T01:10:15.205Z,3.00
2018-12-12T01:12:44.044Z,3.70
2018-12-12T01:15:12.785Z,3.37
2018-12-12T01:17:41.652Z,3.47
2018-12-12T01:20:11.054Z,3.27
2018-12-12T01:22:40.325Z,3.50
2018-12-12T01:25:10.272Z,3.45
2018-12-12T01:27:40.226Z,3.20
2018-12-12T01:30:09.277Z,3.60
2018-12-12T01:32:37.991Z,3.80
2018-12-12T01:35:06.855Z,3.30
2018-12-12T01:37:35.503Z,3.50
2018-12-12T01:40:05.208Z,3.60
2018-12-12T01:42:34.990Z,3.63
2018-12-12T01:45:03.833Z,3.90
2018-12-12T01:47:32.464Z,3.30
2018-12-12T01:50:01.330Z,3.12
2018-12-12T01:52:29.965Z,3.55
2018-12-12T01:54:58.601Z,3.20
2018-12-12T01:57:28.518Z,3.30
2018-12-12T01:59:57.302Z,3.20
2018-12-12T02:02:26.143Z,3.13
2018-12-12T02:04:55.005Z,3.40
2018-12-12T02:07:23.741Z,3.00
2018-12-12T02:09:53.602Z,3.30
2018-12-12T02:12:22.308Z,3.47
2018-12-12T02:14:50.961Z,3.87
2018-12-12T02:17:19.605Z,3.47
2018-12-12T02:19:48.483Z,3.70
2018-12-12T02:22:18.998Z,3.70
2018-12-12T02:24:47.620Z,3.50
2018-12-12T02:27:17.289Z,3.20
2018-12-12T02:29:45.900Z,4.00
2018-12-12T02:32:14.555Z,3.47
2018-12-12T02:34:43.389Z,3.80
2018-12-12T02:37:12.008Z,3.80
2018-12-12T02:39:40.844Z,3.50
2018-12-12T02:42:09.548Z,3.57
2018-12-12T02:44:38.279Z,3.67
2018-12-12T02:47:07.196Z,3.40
2018-12-12T02:49:36.113Z,3.80
2018-12-12T02:52:05.111Z,3.70
2018-12-12T02:54:33.840Z,4.08
2018-12-12T02:57:03.024Z,3.22
2018-12-12T02:59:31.695Z,3.90
2018-12-12T03:02:00.434Z,3.85
2018-12-12T03:04:29.337Z,4.40
2018-12-12T03:06:58.078Z,3.50
2018-12-12T03:09:26.699Z,3.50
2018-12-12T03:11:55.387Z,3.52
2018-12-12T03:14:24.039Z,3.50
2018-12-12T03:16:52.694Z,3.70
2018-12-12T03:19:21.584Z,3.58
2018-12-12T03:21:50.190Z,3.72
2018-12-12T03:24:18.856Z,3.67
2018-12-12T03:26:47.586Z,3.50
2018-12-12T03:29:17.322Z,3.27
2018-12-12T03:31:45.963Z,3.80
2018-12-12T03:34:14.726Z,3.40
2018-12-12T03:36:43.392Z,3.73
2018-12-12T03:39:12.056Z,3.83
2018-12-12T03:41:40.917Z,2.90
2018-12-12T03:44:09.651Z,4.10
2018-12-12T03:46:38.445Z,3.73
2018-12-12T03:49:07.235Z,3.50
2018-12-12T03:51:35.914Z,3.80
2018-12-12T03:54:04.625Z,3.63
2018-12-12T03:56:33.469Z,3.60
2018-12-12T03:59:08.732Z,3.70
2018-12-12T04:01:37.583Z,3.73
2018-12-12T04:04:06.334Z,3.90
2018-12-12T04:06:34.968Z,3.90
2018-12-12T04:09:04.733Z,3.70
2018-12-12T04:11:33.499Z,3.17
2018-12-12T04:14:02.184Z,3.77
2018-12-12T04:16:32.376Z,3.52
2018-12-12T04:19:01.958Z,3.53
2018-12-12T04:21:31.211Z,3.90
2018-12-12T04:24:00.287Z,4.00
2018-12-12T04:26:29.079Z,3.40
2018-12-12T04:28:58.546Z,3.30
2018-12-12T04:31:27.216Z,3.77
2018-12-12T04:33:55.810Z,3.63
2018-12-12T04:36:25.253Z,3.53
2018-12-12T04:38:56.592Z,3.73
2018-12-12T04:41:25.337Z,3.92
2018-12-12T04:43:54.840Z,4.40
2018-12-12T04:46:24.551Z,4.00
2018-12-12T04:48:55.960Z,3.50
2018-12-12T04:51:26.054Z,3.67
2018-12-12T04:53:54.764Z,3.58
2018-12-12T04:56:23.422Z,3.22
2018-12-12T04:58:52.891Z,3.50
2018-12-12T05:01:21.544Z,3.73
2018-12-12T05:03:50.872Z,3.10
2018-12-12T05:06:19.979Z,3.77
2018-12-12T05:08:48.760Z,3.80
2018-12-12T05:11:19.497Z,3.42
2018-12-12T05:13:48.364Z,3.80
2018-12-12T05:16:18.814Z,3.10
2018-12-12T05:18:48.132Z,2.98
2018-12-12T05:21:17.689Z,3.40
2018-12-12T05:23:47.408Z,3.50
2018-12-12T05:26:16.107Z,3.27
2018-12-12T05:28:44.830Z,3.57
2018-12-12T05:31:13.603Z,3.33
2018-12-12T05:33:42.335Z,3.37
2018-12-12T05:36:11.243Z,3.50
2018-12-12T05:38:39.871Z,3.97
2018-12-12T05:41:08.584Z,3.23
2018-12-12T05:43:38.127Z,3.77
2018-12-12T05:46:08.648Z,3.43
2018-12-12T05:48:37.436Z,4.00
2018-12-12T05:51:06.472Z,3.43
2018-12-12T05:53:36.133Z,3.80
2018-12-12T05:56:04.989Z,3.80
2018-12-12T05:58:33.756Z,3.87
2018-12-12T06:01:02.790Z,3.80
2018-12-12T06:03:32.078Z,3.20
2018-12-12T06:06:00.897Z,3.17
2018-12-12T06:08:30.344Z,3.55
2018-12-12T06:10:58.982Z,4.10
2018-12-12T06:13:29.052Z,3.47
2018-12-12T06:15:57.722Z,3.50
2018-12-12T06:18:27.343Z,3.10
2018-12-12T06:20:56.325Z,3.35
2018-12-12T06:23:26.383Z,3.17
2018-12-12T06:25:55.072Z,2.85
2018-12-12T06:28:24.019Z,2.90
2018-12-12T06:30:52.703Z,3.17
2018-12-12T06:33:22.037Z,2.80
2018-12-12T06:35:50.832Z,2.85
2018-12-12T06:38:19.689Z,2.85
2018-12-12T06:40:48.474Z,3.45
2018-12-12T06:43:18.683Z,2.70
2018-12-12T06:45:47.812Z,3.03
2018-12-12T06:48:17.564Z,3.10
2018-12-12T06:50:46.356Z,2.63
2018-12-12T06:53:15.327Z,3.13
2018-12-12T06:55:45.135Z,2.83
2018-12-12T06:58:14.688Z,3.47
2018-12-12T07:00:44.447Z,2.87
2018-12-12T07:03:13.175Z,3.20
2018-12-12T07:05:42.566Z,3.30
2018-12-12T07:08:11.310Z,3.17
2018-12-12T07:10:42.660Z,3.33
2018-12-12T07:13:11.718Z,3.47
2018-12-12T07:15:40.458Z,3.20
2018-12-12T07:18:09.232Z,3.47
2018-12-12T07:20:38.142Z,3.30
2018-12-12T07:23:09.629Z,3.33
2018-12-12T07:25:38.786Z,3.30
2018-12-12T07:28:09.728Z,3.23
2018-12-12T07:30:39.667Z,3.30
2018-12-12T07:33:08.511Z,2.80
2018-12-12T07:35:38.291Z,3.67
2018-12-12T07:38:07.671Z,3.83
2018-12-12T07:40:36.441Z,3.93
2018-12-12T07:43:05.120Z,4.08
2018-12-12T07:45:34.609Z,3.85
2018-12-12T07:48:03.926Z,3.50
2018-12-12T07:50:33.077Z,3.47
2018-12-12T07:53:01.991Z,3.23
2018-12-12T07:55:31.771Z,3.40
2018-12-12T07:58:02.518Z,3.62
2018-12-12T08:00:32.382Z,3.70
2018-12-12T08:03:06.318Z,3.47
2018-12-12T08:05:35.332Z,3.70
2018-12-12T08:08:04.312Z,3.27
2018-12-12T08:10:33.374Z,3.62
2018-12-12T08:13:02.274Z,3.63
2018-12-12T08:15:31.537Z,3.80
2018-12-12T08:18:00.146Z,3.37
2018-12-12T08:20:28.939Z,3.37
2018-12-12T08:22:58.473Z,3.40
2018-12-12T08:25:27.846Z,3.70
2018-12-12T08:27:57.359Z,3.30
2018-12-12T08:30:27.710Z,3.20
2018-12-12T08:32:56.607Z,3.27
2018-12-12T08:35:25.386Z,3.17
2018-12-12T08:37:54.201Z,3.30
2018-12-12T08:40:22.836Z,3.20
2018-12-12T08:42:51.686Z,3.00
2018-12-12T08:45:20.411Z,3.30
2018-12-12T08:47:49.160Z,7.17
2018-12-12T08:50:17.948Z,4.90
2018-12-12T08:52:46.664Z,3.77
2018-12-12T08:55:17.789Z,3.57
2018-12-12T08:57:46.397Z,3.90
2018-12-12T09:00:15.508Z,4.10
2018-12-12T09:02:45.262Z,3.20
2018-12-12T09:05:14.777Z,3.73
2018-12-12T09:07:44.265Z,3.90
2018-12-12T09:10:13.307Z,3.50
2018-12-12T09:12:43.601Z,3.40
2018-12-12T09:15:13.503Z,3.60
2018-12-12T09:17:42.576Z,3.77
2018-12-12T09:20:13.784Z,4.10
2018-12-12T09:22:43.089Z,3.77
2018-12-12T09:25:12.640Z,3.53
2018-12-12T09:27:42.020Z,3.90
2018-12-12T09:30:11.092Z,4.03
2018-12-12T09:32:40.525Z,4.20
2018-12-12T09:35:11.058Z,4.10
2018-12-12T09:37:39.994Z,4.50
2018-12-12T09:40:10.696Z,5.07
2018-12-12T09:42:39.566Z,4.90
2018-12-12T09:45:09.258Z,5.40
2018-12-12T09:47:38.398Z,4.60
2018-12-12T09:50:07.361Z,5.00
2018-12-12T09:52:37.023Z,5.03
2018-12-12T09:55:06.120Z,5.00
2018-12-12T09:57:34.799Z,5.03
2018-12-12T10:00:05.021Z,4.60
2018-12-12T10:02:33.700Z,4.70
2018-12-12T10:05:02.401Z,5.40
2018-12-12T10:07:32.041Z,5.10
2018-12-12T10:10:00.747Z,5.20
2018-12-12T10:12:29.397Z,5.20
2018-12-12T10:14:58.959Z,4.93
2018-12-12T10:17:30.603Z,5.55
2018-12-12T10:20:00.144Z,5.27
2018-12-12T10:22:31.930Z,5.53
2018-12-12T10:25:00.644Z,5.55
2018-12-12T10:27:29.648Z,5.20
2018-12-12T10:29:58.303Z,5.30
2018-12-12T10:32:26.957Z,5.20
2018-12-12T10:34:55.807Z,5.85
2018-12-12T10:37:24.467Z,5.67
2018-12-12T10:39:53.256Z,5.37
2018-12-12T10:42:22.215Z,5.47
2018-12-12T10:44:51.909Z,6.17
2018-12-12T10:47:22.360Z,5.60
2018-12-12T10:49:51.252Z,5.70
2018-12-12T10:52:20.037Z,6.70
2018-12-12T10:54:49.847Z,8.45
2018-12-12T10:57:18.911Z,6.67
2018-12-12T10:59:48.351Z,6.40
2018-12-12T11:02:23.513Z,6.40
2018-12-12T11:04:53.432Z,7.05
2018-12-12T11:07:22.151Z,5.97
2018-12-12T11:09:50.867Z,6.60
2018-12-12T11:12:19.607Z,6.10
2018-12-12T11:14:49.311Z,6.40
2018-12-12T11:17:19.681Z,6.47
2018-12-12T11:19:48.456Z,6.37
2018-12-12T11:22:18.298Z,6.67
2018-12-12T11:24:49.004Z,6.53
2018-12-12T11:27:18.970Z,6.35
2018-12-12T11:29:48.346Z,7.00
2018-12-12T11:32:18.312Z,5.92
2018-12-12T11:34:47.999Z,6.20
2018-12-12T11:37:16.788Z,6.07
2018-12-12T11:39:46.528Z,6.33
2018-12-12T11:42:16.486Z,6.75
2018-12-12T11:44:45.436Z,5.80
2018-12-12T11:47:14.811Z,6.23
2018-12-12T11:49:43.663Z,6.57
2018-12-12T11:52:12.519Z,7.40
2018-12-12T11:54:41.528Z,6.90
2018-12-12T11:57:10.640Z,6.10
2018-12-12T11:59:39.386Z,6.97
2018-12-12T12:02:08.188Z,6.78
2018-12-12T12:04:39.785Z,6.27
2018-12-12T12:07:09.249Z,6.10
2018-12-12T12:09:38.681Z,6.20
2018-12-12T12:12:08.801Z,6.23
2018-12-12T12:14:37.626Z,7.15
2018-12-12T12:17:07.090Z,7.23
2018-12-12T12:19:36.058Z,6.20
2018-12-12T12:22:04.984Z,6.53
2018-12-12T12:24:33.716Z,7.60
2018-12-12T12:27:03.669Z,9.07
2018-12-12T12:29:33.952Z,10.37
2018-12-12T12:32:03.835Z,6.37
2018-12-12T12:34:32.507Z,6.17
2018-12-12T12:37:02.055Z,6.10
2018-12-12T12:39:30.819Z,5.47
2018-12-12T12:41:59.571Z,7.00
2018-12-12T12:44:28.397Z,6.50
2018-12-12T12:46:57.310Z,6.17
2018-12-12T12:49:26.963Z,6.60
2018-12-12T12:51:55.744Z,6.85
2018-12-12T12:54:24.471Z,7.10
2018-12-12T12:56:53.160Z,5.83
2018-12-12T12:59:23.003Z,6.83
2018-12-12T13:01:52.267Z,5.90
2018-12-12T13:04:22.960Z,7.23
2018-12-12T13:06:52.350Z,5.37
2018-12-12T13:09:21.240Z,4.87
2018-12-12T13:11:50.199Z,4.30
2018-12-12T13:14:19.118Z,5.17
2018-12-12T13:16:49.038Z,6.37
2018-12-12T13:19:18.417Z,5.20
2018-12-12T13:21:47.658Z,4.37
2018-12-12T13:24:16.667Z,3.98
2018-12-12T13:26:53.201Z,5.10
2018-12-12T13:29:18.744Z,4.33
2018-12-12T13:31:49.633Z,5.85
2018-12-12T13:34:18.404Z,6.25
2018-12-12T13:36:47.825Z,4.17
2018-12-12T13:39:17.501Z,3.57
2018-12-12T13:41:46.203Z,3.90
2018-12-12T13:44:15.218Z,4.23
2018-12-12T13:46:43.943Z,4.70
2018-12-12T13:49:13.161Z,4.47
2018-12-12T13:51:43.043Z,3.97
2018-12-12T13:54:12.009Z,4.60
2018-12-12T13:56:40.926Z,5.07
2018-12-12T13:59:10.968Z,5.00
2018-12-12T14:01:40.318Z,4.90
2018-12-12T14:04:09.089Z,4.50
2018-12-12T14:06:37.994Z,4.80
2018-12-12T14:09:07.577Z,4.57
2018-12-12T14:11:36.255Z,4.97
2018-12-12T14:14:05.019Z,4.50
2018-12-12T14:16:33.807Z,4.90
2018-12-12T14:19:02.550Z,4.97
2018-12-12T14:21:31.328Z,4.90
2018-12-12T14:24:00.734Z,4.60
2018-12-12T14:26:29.396Z,4.80
2018-12-12T14:28:59.482Z,4.80
2018-12-12T14:31:29.125Z,8.03
2018-12-12T14:33:57.851Z,6.30
2018-12-12T14:36:26.783Z,4.67
2018-12-12T14:38:55.570Z,4.35
2018-12-12T14:41:24.311Z,4.70
2018-12-12T14:43:53.307Z,4.42
2018-12-12T14:46:21.974Z,4.57
2018-12-12T14:48:50.713Z,4.80
2018-12-12T14:51:19.572Z,4.43
2018-12-12T14:53:48.420Z,4.62
2018-12-12T14:56:18.613Z,5.40
2018-12-12T14:58:48.738Z,5.70
2018-12-12T15:01:20.830Z,4.78
2018-12-12T15:03:50.173Z,5.30
2018-12-12T15:06:19.804Z,4.50
2018-12-12T15:08:48.545Z,4.87
2018-12-12T15:11:18.595Z,4.77
2018-12-12T15:13:47.575Z,4.20
2018-12-12T15:16:17.192Z,4.60
2018-12-12T15:18:46.001Z,5.00
2018-12-12T15:21:15.598Z,4.07
2018-12-12T15:23:44.910Z,4.30
2018-12-12T15:26:13.824Z,4.30
2018-12-12T15:28:42.742Z,4.90
2018-12-12T15:31:12.891Z,4.72
2018-12-12T15:33:41.727Z,5.30
2018-12-12T15:36:11.445Z,5.70
2018-12-12T15:38:41.436Z,5.13
2018-12-12T15:41:12.150Z,4.80
2018-12-12T15:43:41.144Z,4.37
2018-12-12T15:46:09.863Z,4.70
2018-12-12T15:48:38.855Z,4.93
2018-12-12T15:51:07.505Z,4.50
2018-12-12T15:53:36.228Z,4.47
2018-12-12T15:56:05.579Z,4.70
2018-12-12T15:58:35.936Z,4.60
2018-12-12T16:01:04.765Z,4.60
2018-12-12T16:03:33.744Z,4.67
2018-12-12T16:06:02.405Z,4.28
2018-12-12T16:08:31.068Z,4.70
2018-12-12T16:10:59.880Z,5.07
2018-12-12T16:13:29.442Z,4.70
2018-12-12T16:15:58.119Z,4.50
2018-12-12T16:18:26.951Z,4.63
2018-12-12T16:20:55.599Z,4.70
2018-12-12T16:23:25.308Z,4.03
2018-12-12T16:25:54.076Z,4.90
2018-12-12T16:28:23.480Z,5.47
2018-12-12T16:30:53.722Z,4.60
2018-12-12T16:33:23.108Z,4.50
2018-12-12T16:35:52.593Z,4.30
2018-12-12T16:38:22.195Z,9.07
2018-12-12T16:40:51.560Z,5.30
2018-12-12T16:43:20.328Z,6.33
2018-12-12T16:45:49.170Z,5.37
2018-12-12T16:48:18.912Z,5.07
2018-12-12T16:50:48.739Z,5.00
2018-12-12T16:53:17.469Z,5.00
2018-12-12T16:55:47.143Z,4.90
2018-12-12T16:58:16.465Z,5.20
2018-12-12T17:00:45.763Z,4.83
2018-12-12T17:03:14.711Z,5.13
2018-12-12T17:05:43.502Z,5.47
2018-12-12T17:08:12.157Z,5.13
2018-12-12T17:10:43.636Z,5.20
2018-12-12T17:13:14.528Z,5.43
2018-12-12T17:15:45.513Z,5.13
2018-12-12T17:18:14.914Z,5.40
2018-12-12T17:20:43.641Z,5.40
2018-12-12T17:23:13.858Z,5.50
2018-12-12T17:25:42.565Z,5.30
2018-12-12T17:28:13.407Z,4.77
2018-12-12T17:30:42.422Z,4.87
2018-12-12T17:33:11.255Z,5.13
2018-12-12T17:35:40.999Z,5.30
2018-12-12T17:38:11.355Z,7.33
2018-12-12T17:40:40.281Z,5.47
2018-12-12T17:43:10.233Z,5.80
2018-12-12T17:45:39.221Z,5.97
2018-12-12T17:48:07.948Z,6.37
2018-12-12T17:50:38.043Z,5.60
2018-12-12T17:53:07.565Z,5.93
2018-12-12T17:55:38.239Z,5.10
2018-12-12T17:58:08.232Z,5.30
2018-12-12T18:00:38.503Z,5.00
2018-12-12T18:03:07.135Z,5.80
2018-12-12T18:05:37.219Z,5.53
2018-12-12T18:08:06.140Z,5.20
2018-12-12T18:10:35.746Z,5.05
2018-12-12T18:13:05.522Z,5.20
2018-12-12T18:15:35.111Z,5.97
2018-12-12T18:18:04.985Z,5.17
2018-12-12T18:20:34.371Z,5.37
2018-12-12T18:23:03.970Z,4.53
2018-12-12T18:25:33.301Z,5.10
2018-12-12T18:28:02.546Z,5.07
2018-12-12T18:30:32.174Z,5.15
2018-12-12T18:33:00.888Z,4.83
2018-12-12T18:35:31.136Z,4.90
2018-12-12T18:38:01.982Z,5.55
2018-12-12T18:40:30.799Z,5.47
2018-12-12T18:43:00.348Z,5.27
2018-12-12T18:45:29.245Z,5.50
2018-12-12T18:47:58.680Z,5.12
2018-12-12T18:50:28.228Z,9.13
2018-12-12T18:52:57.057Z,5.47
2018-12-12T18:55:26.703Z,5.17
2018-12-12T18:57:56.540Z,5.57
2018-12-12T19:00:26.757Z,5.83
2018-12-12T19:02:57.555Z,6.00
2018-12-12T19:05:28.433Z,5.80
2018-12-12T19:07:57.359Z,5.65
2018-12-12T19:10:27.536Z,6.10
2018-12-12T19:12:56.618Z,6.20
2018-12-12T19:15:26.790Z,6.80
2018-12-12T19:17:55.730Z,6.62
2018-12-12T19:20:25.699Z,5.45
2018-12-12T19:22:54.363Z,6.37
2018-12-12T19:25:23.603Z,6.20
2018-12-12T19:27:53.927Z,5.73
2018-12-12T19:30:22.717Z,5.40
2018-12-12T19:32:51.535Z,6.10
2018-12-12T19:35:21.726Z,5.10
2018-12-12T19:37:51.349Z,5.63
2018-12-12T19:40:20.106Z,5.67
2018-12-12T19:42:50.862Z,5.84
2018-12-12T19:45:19.593Z,5.37
2018-12-12T19:47:48.951Z,5.65
2018-12-12T19:50:17.937Z,5.57
2018-12-12T19:52:48.512Z,5.73
2018-12-12T19:55:17.325Z,5.90
2018-12-12T19:57:46.189Z,6.13
2018-12-12T20:00:14.885Z,6.60
2018-12-12T20:02:43.767Z,6.57
2018-12-12T20:05:12.785Z,6.60
2018-12-12T20:07:42.362Z,6.23
2018-12-12T20:10:11.904Z,5.73
2018-12-12T20:12:41.373Z,5.53
2018-12-12T20:15:14.921Z,5.70
2018-12-12T20:17:45.096Z,6.97
2018-12-12T20:20:14.577Z,5.77
2018-12-12T20:22:43.799Z,6.33
2018-12-12T20:25:13.152Z,6.60
2018-12-12T20:27:42.483Z,6.72
2018-12-12T20:30:12.004Z,6.43
2018-12-12T20:32:41.351Z,7.33
2018-12-12T20:35:11.269Z,7.90
2018-12-12T20:37:40.947Z,7.20
2018-12-12T20:40:11.033Z,7.17
2018-12-12T20:42:41.134Z,7.63
2018-12-12T20:45:10.689Z,7.37
2018-12-12T20:47:40.284Z,14.13
2018-12-12T20:50:09.428Z,22.97
2018-12-12T20:52:38.782Z,15.57
2018-12-12T20:55:09.008Z,16.17
2018-12-12T20:57:39.718Z,9.07
2018-12-12T21:00:09.761Z,7.90
2018-12-12T21:02:39.363Z,8.00
2018-12-12T21:05:08.612Z,7.90
2018-12-12T21:07:37.653Z,7.10
2018-12-12T21:10:07.113Z,7.10
2018-12-12T21:12:36.692Z,7.30
2018-12-12T21:15:08.330Z,7.93
2018-12-12T21:17:38.144Z,8.70
2018-12-12T21:20:08.930Z,7.70
2018-12-12T21:22:37.995Z,7.10
2018-12-12T21:25:08.181Z,6.83
2018-12-12T21:27:37.670Z,6.05
2018-12-12T21:30:07.990Z,6.15
2018-12-12T21:32:37.311Z,5.97
2018-12-12T21:35:07.584Z,6.08
2018-12-12T21:37:36.528Z,5.60
2018-12-12T21:40:06.650Z,5.30
2018-12-12T21:42:35.530Z,4.93
2018-12-12T21:45:05.242Z,5.45
2018-12-12T21:47:34.868Z,5.10
2018-12-12T21:50:05.824Z,4.90
2018-12-12T21:52:34.765Z,5.43
2018-12-12T21:55:03.670Z,4.78
2018-12-12T21:57:32.989Z,4.80
2018-12-12T22:00:04.459Z,4.03
2018-12-12T22:02:34.147Z,4.80
2018-12-12T22:05:04.788Z,3.97
2018-12-12T22:07:36.330Z,4.15
2018-12-12T22:10:07.674Z,4.35
2018-12-12T22:12:38.213Z,4.13
2018-12-12T22:15:08.841Z,4.03
2018-12-12T22:17:41.785Z,4.53
2018-12-12T22:20:10.715Z,3.70
2018-12-12T22:22:40.764Z,3.77
2018-12-12T22:25:11.252Z,3.83
2018-12-12T22:27:41.248Z,3.63
2018-12-12T22:30:13.144Z,3.80
2018-12-12T22:32:43.387Z,4.10
2018-12-12T22:35:14.633Z,3.62
2018-12-12T22:37:44.101Z,3.27
2018-12-12T22:40:12.804Z,2.97
2018-12-12T22:42:41.882Z,3.53
2018-12-12T22:45:11.789Z,3.20
2018-12-12T22:47:40.682Z,3.30
2018-12-12T22:50:10.489Z,3.00
2018-12-12T22:52:40.538Z,2.90
2018-12-12T22:55:10.110Z,2.83
2018-12-12T22:57:40.017Z,3.03
2018-12-12T23:00:10.563Z,3.00
2018-12-12T23:02:41.453Z,2.87
2018-12-12T23:05:10.537Z,2.33
2018-12-12T23:07:49.183Z,2.70
2018-12-12T23:10:18.610Z,2.70
2018-12-12T23:12:48.092Z,2.70
2018-12-12T23:15:17.705Z,3.00
2018-12-12T23:17:47.597Z,2.80
2018-12-12T23:20:17.103Z,2.90
2018-12-12T23:22:47.819Z,2.80
2018-12-12T23:25:17.671Z,2.87
2018-12-12T23:27:48.000Z,2.77
2018-12-12T23:30:17.865Z,2.70
2018-12-12T23:32:48.149Z,2.70
2018-12-12T23:35:17.977Z,2.60
2018-12-12T23:37:47.791Z,2.70
2018-12-12T23:40:17.052Z,2.30
2018-12-12T23:42:46.067Z,2.43
2018-12-12T23:45:15.423Z,2.80
2018-12-12T23:47:44.665Z,3.00
2018-12-12T23:50:14.478Z,3.00
2018-12-12T23:52:43.673Z,2.92
2018-12-12T23:55:12.711Z,2.87
2018-12-12T23:57:42.772Z,3.07
